Time;durP1;ratioP1;P1;durP2;ratioP2;P2;SDS_P1;SDS_P2;PMS_P1;PMS_P2;Temp;Humidity;BMP_temperature;BMP_pressure;BME280_temperature;BME280_humidity;BME280_pressure;Samples;Min_cycle;Max_cycle;Signal;HPM_P1;HPM_P2
2022/06/30 00:00:41;;;;;;;;;;;;;;;;;;4957102;28;8969;-86
2022/06/30 00:03:07;;;;;;;;;;;;;;;;;;4956727;28;8458;-87
2022/06/30 00:05:33;;;;;;;;;;;;;;;;;;4957053;28;8804;-86
2022/06/30 00:07:58;;;;;;;;;;;;;;;;;;4957050;28;8416;-86
2022/06/30 00:10:24;;;;;;;;;;;;;;;;;;4956903;28;8660;-87
2022/06/30 00:12:49;;;;;;;;;;;;;;;;;;4956786;28;8437;-86
2022/06/30 00:15:15;;;;;;;;;;;;;;;;;;4956771;28;8397;-86
2022/06/30 00:17:40;;;;;;;;;;;;;;;;;;4956691;28;7821;-86
2022/06/30 00:20:06;;;;;;;;;;;;;;;;;;4956861;28;9051;-86
2022/06/30 00:22:32;;;;;;;;;;;;;;;;;;4956745;28;7181;-86
2022/06/30 00:24:57;;;;;;;;;;;;;;;;;;4956272;28;7045;-86
2022/06/30 00:27:23;;;;;;;;;;;;;;;;;;4956757;28;8457;-86
2022/06/30 00:29:48;;;;;;;;;;;;;;;;;;4956557;28;7353;-87
2022/06/30 00:32:13;;;;;;;;;;;;;;;;;;4955423;28;8412;-87
2022/06/30 00:34:39;;;;;;;;;;;;;;;;;;4956717;28;8456;-87
2022/06/30 00:37:05;;;;;;;;;;;;;;;;;;4955937;28;7036;-86
2022/06/30 00:39:30;;;;;;;;;;;;;;;;;;4956504;28;8392;-87
2022/06/30 00:41:56;;;;;;;;;;;;;;;;;;4956376;28;7043;-88
2022/06/30 00:44:22;;;;;;;;;;;;;;;;;;4956150;28;7165;-87
2022/06/30 00:46:48;;;;;;;;;;;;;;;;;;4956856;28;7172;-87
2022/06/30 00:49:14;;;;;;;;;;;;;;;;;;4956302;28;8637;-87
2022/06/30 00:51:39;;;;;;;;;;;;;;;;;;4956600;28;8475;-87
2022/06/30 00:54:06;;;;;;;;;;;;;;;;;;4956247;28;8757;-87
2022/06/30 00:56:33;;;;;;;;;;;;;;;;;;4956220;28;8770;-87
2022/06/30 00:59:03;;;;;;;;;;;;;;;;;;4956694;28;8732;-87
2022/06/30 01:01:30;;;;;;;;;;;;;;;;;;4956244;28;8376;-86
2022/06/30 01:03:56;;;;;;;;;;;;;;;;;;4956047;28;8673;-87
2022/06/30 01:06:22;;;;;;;;;;;;;;;;;;4956150;28;7608;-87
2022/06/30 01:08:48;;;;;;;;;;;;;;;;;;4955949;28;7089;-86
2022/06/30 01:14:00;;;;;;;;;;;;;;;;;;4957993;28;6914;-86
2022/06/30 01:16:25;;;;;;;;;;;;;;;;;;4955934;28;9221;-85
2022/06/30 01:18:51;;;;;;;;;;;;;;;;;;4956125;28;8383;-86
2022/06/30 01:21:17;;;;;;;;;;;;;;;;;;4957368;28;6815;-86
2022/06/30 01:23:43;;;;;;;;;;;;;;;;;;4956083;28;8389;-87
2022/06/30 01:26:09;;;;;;;;;;;;;;;;;;4956026;28;7099;-85
2022/06/30 01:28:34;;;;;;;;;;;;;;;;;;4956731;28;7151;-86
2022/06/30 01:30:59;;;;;;;;;;;;;;;;;;4955659;28;8268;-85
2022/06/30 01:33:26;;;;;;;;;;;;;;;;;;4955372;28;7137;-86
2022/06/30 01:35:53;;;;;;;;;;;;;;;;;;4955669;28;7182;-86
2022/06/30 01:38:19;;;;;;;;;;;;;;;;;;4956114;28;8314;-86
2022/06/30 01:40:45;;;;;;;;;;;;;;;;;;4955553;28;8313;-85
2022/06/30 01:43:12;;;;;;;;;;;;;;;;;;4954672;28;8670;-86
2022/06/30 01:45:39;;;;;;;;;;;;;;;;;;4955755;28;7040;-86
2022/06/30 01:48:04;;;;;;;;;;;;;;;;;;4955313;28;8400;-85
2022/06/30 01:50:31;;;;;;;;;;;;;;;;;;4955570;28;8380;-86
2022/06/30 01:52:57;;;;;;;;;;;;;;;;;;4955811;28;8415;-86
2022/06/30 01:55:23;;;;;;;;;;;;;;;;;;4955161;28;7038;-86
2022/06/30 01:57:49;;;;;;;;;;;;;;;;;;4955455;28;7353;-86
2022/06/30 02:00:16;;;;;;;;;;;;;;;;;;4955624;28;8365;-85
2022/06/30 02:02:42;;;;;;;;;;;;;;;;;;4955202;28;7513;-85
2022/06/30 02:05:09;;;;;;;;;;;;;;;;;;4955431;28;8432;-86
2022/06/30 02:07:39;;;;;;;;;;;;;;;;;;4955389;28;8433;-86
2022/06/30 02:10:10;;;;;;;;;;;;;;;;;;4955139;28;7043;-86
2022/06/30 02:12:45;;;;;;;;;;;;;;;;;;4955307;28;7344;-87
2022/06/30 02:15:12;;;;;;;;;;;;;;;;;;4955535;28;7295;-86
2022/06/30 02:17:39;;;;;;;;;;;;;;;;;;4955407;28;8525;-86
2022/06/30 02:20:07;;;;;;;;;;;;;;;;;;4955350;28;8492;-86
2022/06/30 02:22:34;;;;;;;;;;;;;;;;;;4954965;28;7039;-86
2022/06/30 02:25:00;;;;;;;;;;;;;;;;;;4954725;29;8516;-85
2022/06/30 02:27:25;;;;;;;;;;;;;;;;;;4954861;29;7265;-86
2022/06/30 02:29:51;;;;;;;;;;;;;;;;;;4954731;29;7159;-86
2022/06/30 02:32:18;;;;;;;;;;;;;;;;;;4954755;28;8301;-86
2022/06/30 02:34:43;;;;;;;;;;;;;;;;;;4955158;29;8437;-86
2022/06/30 02:37:09;;;;;;;;;;;;;;;;;;4955296;29;8430;-86
2022/06/30 02:39:34;;;;;;;;;;;;;;;;;;4954950;28;8457;-86
2022/06/30 02:42:00;;;;;;;;;;;;;;;;;;4955174;28;8352;-87
2022/06/30 02:44:25;;;;;;;;;;;;;;;;;;4954979;28;7495;-87
2022/06/30 02:46:51;;;;;;;;;;;;;;;;;;4955356;28;7029;-86
2022/06/30 02:49:19;;;;;;;;;;;;;;;;;;4955162;29;7047;-86
2022/06/30 02:51:45;;;;;;;;;;;;;;;;;;4955599;28;8483;-87
2022/06/30 02:54:11;;;;;;;;;;;;;;;;;;4955402;28;7394;-86
2022/06/30 02:56:36;;;;;;;;;;;;;;;;;;4958489;28;7161;-86
2022/06/30 02:59:02;;;;;;;;;;;;;;;;;;4959086;28;7374;-86
2022/06/30 03:01:27;;;;;;;;;;;;;;;;;;4958607;28;7166;-87
2022/06/30 03:03:53;;;;;;;;;;;;;;;;;;4958221;28;7174;-86
2022/06/30 03:06:19;;;;;;;;;;;;;;;;;;4958591;28;8493;-87
2022/06/30 03:08:44;;;;;;;;;;;;;;;;;;4958450;28;8384;-87
2022/06/30 03:11:16;;;;;;;;;;;;;;;;;;4958822;28;8494;-86
2022/06/30 03:13:45;;;;;;;;;;;;;;;;;;4958138;28;7210;-86
2022/06/30 03:16:13;;;;;;;;;;;;;;;;;;4958673;28;7192;-88
2022/06/30 03:18:40;;;;;;;;;;;;;;;;;;4957590;28;8861;-86
2022/06/30 03:21:06;;;;;;;;;;;;;;;;;;4957775;28;7068;-86
2022/06/30 03:23:31;;;;;;;;;;;;;;;;;;4957630;28;7234;-87
2022/06/30 03:25:57;;;;;;;;;;;;;;;;;;4957704;28;8587;-87
2022/06/30 03:28:23;;;;;;;;;;;;;;;;;;4957636;28;8537;-88
2022/06/30 03:30:48;;;;;;;;;;;;;;;;;;4957310;28;7164;-86
2022/06/30 03:33:15;;;;;;;;;;;;;;;;;;4957242;28;8434;-86
2022/06/30 03:35:40;;;;;;;;;;;;;;;;;;4957456;28;7065;-87
2022/06/30 03:38:06;;;;;;;;;;;;;;;;;;4957561;28;7493;-87
2022/06/30 03:40:32;;;;;;;;;;;;;;;;;;4957005;28;9097;-86
2022/06/30 03:42:58;;;;;;;;;;;;;;;;;;4957528;28;7161;-87
2022/06/30 03:45:24;;;;;;;;;;;;;;;;;;4957268;28;7272;-87
2022/06/30 03:47:50;;;;;;;;;;;;;;;;;;4956943;28;8417;-87
2022/06/30 03:50:16;;;;;;;;;;;;;;;;;;4957360;28;8325;-87
2022/06/30 03:52:41;;;;;;;;;;;;;;;;;;4957330;28;8571;-86
2022/06/30 03:55:07;;;;;;;;;;;;;;;;;;4957400;28;8412;-88
2022/06/30 03:57:33;;;;;;;;;;;;;;;;;;4957649;28;8498;-87
2022/06/30 03:59:59;;;;;;;;;;;;;;;;;;4956753;28;7173;-87
2022/06/30 04:02:25;;;;;;;;;;;;;;;;;;4957140;28;7174;-87
2022/06/30 04:04:51;;;;;;;;;;;;;;;;;;4957301;28;7145;-86
2022/06/30 04:07:16;;;;;;;;;;;;;;;;;;4956474;28;8803;-86
2022/06/30 04:09:42;;;;;;;;;;;;;;;;;;4957319;28;8371;-87
2022/06/30 04:12:07;;;;;;;;;;;;;;;;;;4957324;28;8265;-87
2022/06/30 04:14:33;;;;;;;;;;;;;;;;;;4957304;28;8562;-87
2022/06/30 04:17:00;;;;;;;;;;;;;;;;;;4957115;28;8386;-87
2022/06/30 04:19:26;;;;;;;;;;;;;;;;;;4956874;28;7140;-87
2022/06/30 04:21:52;;;;;;;;;;;;;;;;;;4957420;28;8443;-86
2022/06/30 04:24:18;;;;;;;;;;;;;;;;;;4957153;28;8372;-86
2022/06/30 04:26:43;;;;;;;;;;;;;;;;;;4957387;28;8460;-86
2022/06/30 04:29:09;;;;;;;;;;;;;;;;;;4957086;28;8550;-86
2022/06/30 04:34:18;;;;;;;;;;;;;;;;;;4957786;28;6975;-86
2022/06/30 04:36:44;;;;;;;;;;;;;;;;;;4957096;28;8385;-87
2022/06/30 04:39:10;;;;;;;;;;;;;;;;;;4956910;28;8344;-86
2022/06/30 04:41:36;;;;;;;;;;;;;;;;;;4956739;28;8697;-86
2022/06/30 04:44:02;;;;;;;;;;;;;;;;;;4956647;28;7202;-86
2022/06/30 04:46:28;;;;;;;;;;;;;;;;;;4956468;28;7156;-86
2022/06/30 04:48:54;;;;;;;;;;;;;;;;;;4956763;28;7318;-86
2022/06/30 04:51:20;;;;;;;;;;;;;;;;;;4956687;28;7138;-87
2022/06/30 04:53:46;;;;;;;;;;;;;;;;;;4956501;28;7170;-86
2022/06/30 04:56:12;;;;;;;;;;;;;;;;;;4956263;28;7032;-87
2022/06/30 04:58:38;;;;;;;;;;;;;;;;;;4956249;28;8423;-86
2022/06/30 05:01:04;;;;;;;;;;;;;;;;;;4956137;28;8610;-86
2022/06/30 05:03:31;;;;;;;;;;;;;;;;;;4956297;28;8322;-86
2022/06/30 05:05:57;;;;;;;;;;;;;;;;;;4956412;28;7118;-87
2022/06/30 05:08:22;;;;;;;;;;;;;;;;;;4956301;28;7044;-86
2022/06/30 05:10:48;;;;;;;;;;;;;;;;;;4956099;28;8479;-87
2022/06/30 05:13:13;;;;;;;;;;;;;;;;;;4955824;28;8373;-85
2022/06/30 05:15:39;;;;;;;;;;;;;;;;;;4955843;28;8783;-87
2022/06/30 05:18:04;;;;;;;;;;;;;;;;;;4955612;28;8562;-88
2022/06/30 05:20:31;;;;;;;;;;;;;;;;;;4956108;28;8410;-88
2022/06/30 05:22:57;;;;;;;;;;;;;;;;;;4956560;28;7210;-91
2022/06/30 05:28:07;;;;;;;;;;;;;;;;;;4955187;28;7001;-88
2022/06/30 05:30:34;;;;;;;;;;;;;;;;;;4953615;28;8506;-81
2022/06/30 05:32:59;;;;;;;;;;;;;;;;;;4952628;28;8464;-87
2022/06/30 05:35:25;;;;;;;;;;;;;;;;;;4953360;28;7156;-87
2022/06/30 05:37:51;;;;;;;;;;;;;;;;;;4952283;28;7195;-84
2022/06/30 05:40:16;;;;;;;;;;;;;;;;;;4953358;28;7063;-85
2022/06/30 05:42:42;;;;;;;;;;;;;;;;;;4954210;28;8654;-85
2022/06/30 05:45:08;;;;;;;;;;;;;;;;;;4954292;28;7452;-86
2022/06/30 05:47:33;;;;;;;;;;;;;;;;;;4954829;28;8427;-85
2022/06/30 05:49:59;;;;;;;;;;;;;;;;;;4955019;28;8406;-85
2022/06/30 05:52:24;;;;;;;;;;;;;;;;;;4954712;28;8408;-85
2022/06/30 05:54:50;;;;;;;;;;;;;;;;;;4954693;28;8748;-86
2022/06/30 05:57:15;;;;;;;;;;;;;;;;;;4954818;29;8431;-86
2022/06/30 05:59:41;;;;;;;;;;;;;;;;;;4954206;29;8658;-85
2022/06/30 06:02:07;;;;;;;;;;;;;;;;;;4953077;29;7921;-84
2022/06/30 06:04:33;;;;;;;;;;;;;;;;;;4953454;28;8424;-86
2022/06/30 06:06:59;;;;;;;;;;;;;;;;;;4953813;29;9675;-87
2022/06/30 06:09:24;;;;;;;;;;;;;;;;;;4955321;29;8484;-87
2022/06/30 06:11:50;;;;;;;;;;;;;;;;;;4955175;28;8462;-89
2022/06/30 06:14:15;;;;;;;;;;;;;;;;;;4955040;29;7039;-86
2022/06/30 06:16:41;;;;;;;;;;;;;;;;;;4954680;29;8424;-87
2022/06/30 06:19:06;;;;;;;;;;;;;;;;;;4955627;29;8609;-86
2022/06/30 06:21:34;;;;;;;;;;;;;;;;;;4955692;29;8971;-86
2022/06/30 06:23:59;;;;;;;;;;;;;;;;;;4955223;29;7176;-86
2022/06/30 06:26:25;;;;;;;;;;;;;;;;;;4953819;29;8390;-88
2022/06/30 06:29:05;;;;;;;;;;;;;;;;;;4955010;28;8644;-86
2022/06/30 06:31:31;;;;;;;;;;;;;;;;;;4958133;28;7090;-89
2022/06/30 06:33:57;;;;;;;;;;;;;;;;;;4958310;28;8446;-86
2022/06/30 06:36:22;;;;;;;;;;;;;;;;;;4959038;28;8455;-87
2022/06/30 06:38:48;;;;;;;;;;;;;;;;;;4958799;28;8478;-87
2022/06/30 06:41:14;;;;;;;;;;;;;;;;;;4958771;28;7191;-87
2022/06/30 06:43:40;;;;;;;;;;;;;;;;;;4958911;28;9128;-85
2022/06/30 06:46:05;;;;;;;;;;;;;;;;;;4958682;28;8436;-88
2022/06/30 06:48:31;;;;;;;;;;;;;;;;;;4958445;28;8788;-87
2022/06/30 06:50:56;;;;;;;;;;;;;;;;;;4959676;28;8591;-88
2022/06/30 06:53:22;;;;;;;;;;;;;;;;;;4959067;28;8427;-87
2022/06/30 06:55:47;;;;;;;;;;;;;;;;;;4958161;28;7049;-88
2022/06/30 06:58:13;;;;;;;;;;;;;;;;;;4958957;28;8491;-88
2022/06/30 07:00:38;;;;;;;;;;;;;;;;;;4958573;28;8434;-86
2022/06/30 07:03:04;;;;;;;;;;;;;;;;;;4958327;28;8600;-88
2022/06/30 07:05:29;;;;;;;;;;;;;;;;;;4958509;28;8393;-87
2022/06/30 07:07:59;;;;;;;;;;;;;;;;;;4956239;28;8450;-87
2022/06/30 07:10:25;;;;;;;;;;;;;;;;;;4954450;28;8430;-86
2022/06/30 07:12:51;;;;;;;;;;;;;;;;;;4953795;28;8751;-88
2022/06/30 07:15:16;;;;;;;;;;;;;;;;;;4954332;28;8426;-87
2022/06/30 07:17:42;;;;;;;;;;;;;;;;;;4954505;28;7195;-87
2022/06/30 07:20:08;;;;;;;;;;;;;;;;;;4955202;28;8848;-88
2022/06/30 07:22:34;;;;;;;;;;;;;;;;;;4955141;28;8456;-87
2022/06/30 07:25:00;;;;;;;;;;;;;;;;;;4955776;28;7199;-88
2022/06/30 07:27:25;;;;;;;;;;;;;;;;;;4955857;28;8542;-86
2022/06/30 07:29:51;;;;;;;;;;;;;;;;;;4955004;28;6860;-86
2022/06/30 07:32:16;;;;;;;;;;;;;;;;;;4954701;28;7264;-87
2022/06/30 07:34:42;;;;;;;;;;;;;;;;;;4956866;28;8788;-88
2022/06/30 07:37:07;;;;;;;;;;;;;;;;;;4957501;28;7231;-88
2022/06/30 07:39:33;;;;;;;;;;;;;;;;;;4956935;28;8514;-88
2022/06/30 07:41:59;;;;;;;;;;;;;;;;;;4957691;28;8506;-87
2022/06/30 07:44:24;;;;;;;;;;;;;;;;;;4957757;28;7104;-87
2022/06/30 07:46:49;;;;;;;;;;;;;;;;;;4957435;28;8572;-88
2022/06/30 07:49:15;;;;;;;;;;;;;;;;;;4957526;28;8556;-88
2022/06/30 07:51:40;;;;;;;;;;;;;;;;;;4957321;28;7477;-87
2022/06/30 07:54:06;;;;;;;;;;;;;;;;;;4958182;28;8496;-81
2022/06/30 07:56:32;;;;;;;;;;;;;;;;;;4957405;28;8639;-88
2022/06/30 07:58:58;;;;;;;;;;;;;;;;;;4957893;28;8764;-87
2022/06/30 08:01:24;;;;;;;;;;;;;;;;;;4958037;28;7116;-89
2022/06/30 08:03:50;;;;;;;;;;;;;;;;;;4957929;28;8961;-89
2022/06/30 08:06:15;;;;;;;;;;;;;;;;;;4956971;28;8499;-90
2022/06/30 08:08:41;;;;;;;;;;;;;;;;;;4958210;28;8737;-89
2022/06/30 08:11:07;;;;;;;;;;;;;;;;;;4957392;28;8486;-90
2022/06/30 08:13:33;;;;;;;;;;;;;;;;;;4959001;28;8503;-91
2022/06/30 08:15:58;;;;;;;;;;;;;;;;;;4957010;28;8425;-90
2022/06/30 08:18:24;;;;;;;;;;;;;;;;;;4957951;28;7210;-90
2022/06/30 08:20:49;;;;;;;;;;;;;;;;;;4958651;28;7313;-88
2022/06/30 08:23:15;;;;;;;;;;;;;;;;;;4956994;28;9384;-88
2022/06/30 08:25:40;;;;;;;;;;;;;;;;;;4956967;28;8518;-88
2022/06/30 08:28:08;;;;;;;;;;;;;;;;;;4957293;28;8864;-88
2022/06/30 08:30:34;;;;;;;;;;;;;;;;;;4957312;28;9247;-88
2022/06/30 08:32:59;;;;;;;;;;;;;;;;;;4956831;28;7325;-88
2022/06/30 08:35:25;;;;;;;;;;;;;;;;;;4956813;28;8505;-88
2022/06/30 08:37:50;;;;;;;;;;;;;;;;;;4956836;28;7173;-88
2022/06/30 08:43:00;;;;;;;;;;;;;;;;;;4958506;28;7065;-87
2022/06/30 08:45:29;;;;;;;;;;;;;;;;;;4956647;28;8712;-90
2022/06/30 08:47:55;;;;;;;;;;;;;;;;;;4957137;28;8863;-89
2022/06/30 08:50:20;;;;;;;;;;;;;;;;;;4957136;28;8455;-90
2022/06/30 08:52:48;;;;;;;;;;;;;;;;;;4955439;28;8621;-89
2022/06/30 08:55:15;;;;;;;;;;;;;;;;;;4956097;28;8829;-90
2022/06/30 08:57:42;;;;;;;;;;;;;;;;;;4955845;28;8721;-87
2022/06/30 09:00:09;;;;;;;;;;;;;;;;;;4955071;28;8798;-89
2022/06/30 09:02:35;;;;;;;;;;;;;;;;;;4955771;28;8975;-89
2022/06/30 09:05:01;;;;;;;;;;;;;;;;;;4955999;28;8501;-87
2022/06/30 09:07:27;;;;;;;;;;;;;;;;;;4956009;28;9213;-89
2022/06/30 09:09:52;;;;;;;;;;;;;;;;;;4955537;28;8925;-89
2022/06/30 09:12:19;;;;;;;;;;;;;;;;;;4956175;28;8582;-87
2022/06/30 09:14:47;;;;;;;;;;;;;;;;;;4956102;28;8538;-88
2022/06/30 09:17:17;;;;;;;;;;;;;;;;;;4955542;28;9001;-87
2022/06/30 09:19:58;;;;;;;;;;;;;;;;;;4956312;28;8561;-87
2022/06/30 09:22:26;;;;;;;;;;;;;;;;;;4956396;28;8695;-81
2022/06/30 09:25:03;;;;;;;;;;;;;;;;;;4955909;28;8714;-81
2022/06/30 09:27:31;;;;;;;;;;;;;;;;;;4956004;28;8793;-88
2022/06/30 09:30:00;;;;;;;;;;;;;;;;;;4956182;28;8507;-89
2022/06/30 09:32:26;;;;;;;;;;;;;;;;;;4955990;28;8543;-88
2022/06/30 09:34:52;;;;;;;;;;;;;;;;;;4956149;28;8534;-91
2022/06/30 09:37:23;;;;;;;;;;;;;;;;;;4956422;28;8719;-89
2022/06/30 09:39:51;;;;;;;;;;;;;;;;;;4956328;28;9072;-90
2022/06/30 09:42:37;;;;;;;;;;;;;;;;;;4956075;28;9130;-90
2022/06/30 09:45:04;;;;;;;;;;;;;;;;;;4955921;28;8891;-89
2022/06/30 09:47:30;;;;;;;;;;;;;;;;;;4955855;28;8509;-89
2022/06/30 09:50:00;;;;;;;;;;;;;;;;;;4955538;28;8592;-90
2022/06/30 09:52:26;;;;;;;;;;;;;;;;;;4955500;28;7267;-91
2022/06/30 09:54:55;;;;;;;;;;;;;;;;;;4956705;28;8973;-89
2022/06/30 09:57:22;;;;;;;;;;;;;;;;;;4955428;28;8516;-83
2022/06/30 09:59:57;;;;;;;;;;;;;;;;;;4956409;28;7227;-89
2022/06/30 10:02:26;;;;;;;;;;;;;;;;;;4955587;29;8931;-88
2022/06/30 10:04:54;;;;;;;;;;;;;;;;;;4957178;28;8749;-88
2022/06/30 10:07:20;;;;;;;;;;;;;;;;;;4959641;28;7272;-88
2022/06/30 10:09:47;;;;;;;;;;;;;;;;;;4959452;28;8797;-88
2022/06/30 10:12:14;;;;;;;;;;;;;;;;;;4959586;28;8505;-89
2022/06/30 10:14:40;;;;;;;;;;;;;;;;;;4960964;28;8582;-90
2022/06/30 10:17:07;;;;;;;;;;;;;;;;;;4959535;28;8665;-90
2022/06/30 10:19:33;;;;;;;;;;;;;;;;;;4959103;28;8628;-89
2022/06/30 10:22:00;;;;;;;;;;;;;;;;;;4959818;28;8525;-89
2022/06/30 10:24:25;;;;;;;;;;;;;;;;;;4959145;28;8557;-90
2022/06/30 10:29:45;;;;;;;;;;;;;;;;;;4959175;28;7075;-89
2022/06/30 10:32:14;;;;;;;;;;;;;;;;;;4956370;28;8468;-89
2022/06/30 10:34:45;;;;;;;;;;;;;;;;;;4958336;28;8832;-83
2022/06/30 10:37:17;;;;;;;;;;;;;;;;;;4959457;28;8597;-90
2022/06/30 10:39:54;;;;;;;;;;;;;;;;;;4960132;28;8780;-89
2022/06/30 10:42:39;;;;;;;;;;;;;;;;;;4958779;28;9036;-92
2022/06/30 10:45:04;;;;;;;;;;;;;;;;;;4958635;28;8472;-89
2022/06/30 10:47:30;;;;;;;;;;;;;;;;;;4960354;28;8523;-83
2022/06/30 10:49:56;;;;;;;;;;;;;;;;;;4954382;28;8496;-90
2022/06/30 10:52:24;;;;;;;;;;;;;;;;;;4957824;28;8924;-90
2022/06/30 10:54:59;;;;;;;;;;;;;;;;;;4957361;28;7126;-90
2022/06/30 10:57:24;;;;;;;;;;;;;;;;;;4957295;28;8564;-91
2022/06/30 10:59:49;;;;;;;;;;;;;;;;;;4957514;28;8820;-89
2022/06/30 11:02:18;;;;;;;;;;;;;;;;;;4957144;28;8564;-90
2022/06/30 11:04:48;;;;;;;;;;;;;;;;;;4973162;28;8532;-90
2022/06/30 11:07:18;;;;;;;;;;;;;;;;;;4957267;28;8912;-90
2022/06/30 11:09:44;;;;;;;;;;;;;;;;;;4957042;28;8064;-90
2022/06/30 11:12:14;;;;;;;;;;;;;;;;;;4973370;28;7135;-89
2022/06/30 11:14:51;;;;;;;;;;;;;;;;;;4957004;28;8527;-89
2022/06/30 11:17:21;;;;;;;;;;;;;;;;;;4957439;28;8566;-90
2022/06/30 11:19:47;;;;;;;;;;;;;;;;;;4956365;28;8550;-90
2022/06/30 11:22:15;;;;;;;;;;;;;;;;;;4957329;28;8538;-90
2022/06/30 11:24:42;;;;;;;;;;;;;;;;;;4957189;28;9018;-90
2022/06/30 11:27:17;;;;;;;;;;;;;;;;;;4956567;28;8703;-90
2022/06/30 11:29:45;;;;;;;;;;;;;;;;;;4957073;28;8742;-90
2022/06/30 11:32:10;;;;;;;;;;;;;;;;;;4957034;28;8567;-90
2022/06/30 11:34:37;;;;;;;;;;;;;;;;;;4956890;28;8756;-90
2022/06/30 11:37:03;;;;;;;;;;;;;;;;;;4957176;28;8923;-90
2022/06/30 11:39:28;;;;;;;;;;;;;;;;;;4956759;28;8674;-91
2022/06/30 11:41:58;;;;;;;;;;;;;;;;;;4956817;28;8754;-90
2022/06/30 11:44:25;;;;;;;;;;;;;;;;;;4957490;28;8502;-90
2022/06/30 11:46:56;;;;;;;;;;;;;;;;;;4957611;28;8600;-90
2022/06/30 11:49:24;;;;;;;;;;;;;;;;;;4957391;28;9572;-91
2022/06/30 11:51:51;;;;;;;;;;;;;;;;;;4957564;28;8929;-89
2022/06/30 11:54:17;;;;;;;;;;;;;;;;;;4957874;28;7270;-90
2022/06/30 11:56:44;;;;;;;;;;;;;;;;;;4958443;28;8630;-89
2022/06/30 11:59:09;;;;;;;;;;;;;;;;;;4957299;28;8708;-88
2022/06/30 12:01:35;;;;;;;;;;;;;;;;;;4957332;28;8552;-87
2022/06/30 12:04:17;;;;;;;;;;;;;;;;;;4957304;28;8797;-87
2022/06/30 12:06:42;;;;;;;;;;;;;;;;;;4957302;28;8574;-87
2022/06/30 12:09:09;;;;;;;;;;;;;;;;;;4957004;28;8523;-87
2022/06/30 12:11:35;;;;;;;;;;;;;;;;;;4957044;28;8502;-87
2022/06/30 12:14:01;;;;;;;;;;;;;;;;;;4957063;28;8561;-87
2022/06/30 12:16:27;;;;;;;;;;;;;;;;;;4957239;28;8806;-87
2022/06/30 12:18:52;;;;;;;;;;;;;;;;;;4957259;28;8495;-79
2022/06/30 12:21:18;;;;;;;;;;;;;;;;;;4957625;28;8500;-87
2022/06/30 12:23:45;;;;;;;;;;;;;;;;;;4958636;28;6897;-87
2022/06/30 12:26:11;;;;;;;;;;;;;;;;;;4957492;28;8772;-88
2022/06/30 12:28:55;;;;;;;;;;;;;;;;;;4956431;28;9449;-88
2022/06/30 12:31:26;;;;;;;;;;;;;;;;;;4956889;28;8798;-87
2022/06/30 12:33:52;;;;;;;;;;;;;;;;;;4957200;28;8734;-86
2022/06/30 12:36:18;;;;;;;;;;;;;;;;;;4957172;28;8621;-88
2022/06/30 12:38:43;;;;;;;;;;;;;;;;;;4957144;28;8551;-87
2022/06/30 12:41:11;;;;;;;;;;;;;;;;;;4956962;28;8482;-85
2022/06/30 12:43:44;;;;;;;;;;;;;;;;;;4870777;28;12252;-86
2022/06/30 12:46:11;;;;;;;;;;;;;;;;;;4977738;28;7209;-88
2022/06/30 12:48:47;;;;;;;;;;;;;;;;;;4977221;28;8927;-85
2022/06/30 12:51:15;;;;;;;;;;;;;;;;;;4975598;28;8941;-89
2022/06/30 12:53:41;;;;;;;;;;;;;;;;;;4975538;28;7270;-87
2022/06/30 12:56:09;;;;;;;;;;;;;;;;;;4975451;28;8529;-88
2022/06/30 12:58:46;;;;;;;;;;;;;;;;;;4976013;28;7368;-86
2022/06/30 13:01:17;;;;;;;;;;;;;;;;;;4977230;28;8833;-87
2022/06/30 13:03:54;;;;;;;;;;;;;;;;;;4976043;28;7236;-85
2022/06/30 13:06:20;;;;;;;;;;;;;;;;;;4976582;28;6887;-87
2022/06/30 13:08:46;;;;;;;;;;;;;;;;;;4977348;28;7354;-83
2022/06/30 13:11:17;;;;;;;;;;;;;;;;;;4977033;28;8867;-88
2022/06/30 13:13:43;;;;;;;;;;;;;;;;;;4976767;28;7234;-88
2022/06/30 13:16:11;;;;;;;;;;;;;;;;;;4975854;28;7014;-88
2022/06/30 13:18:36;;;;;;;;;;;;;;;;;;4975038;28;8508;-89
2022/06/30 13:21:02;;;;;;;;;;;;;;;;;;4975037;28;9404;-90
2022/06/30 13:23:27;;;;;;;;;;;;;;;;;;4975165;28;7299;-89
2022/06/30 13:25:53;;;;;;;;;;;;;;;;;;4976241;28;7244;-90
2022/06/30 13:28:18;;;;;;;;;;;;;;;;;;4976086;28;7080;-89
2022/06/30 13:30:45;;;;;;;;;;;;;;;;;;4974395;28;8512;-90
2022/06/30 13:33:11;;;;;;;;;;;;;;;;;;4971277;28;8647;-89
2022/06/30 13:35:37;;;;;;;;;;;;;;;;;;4975665;28;8791;-89
2022/06/30 13:38:02;;;;;;;;;;;;;;;;;;4974533;28;8479;-88
2022/06/30 13:40:28;;;;;;;;;;;;;;;;;;4975172;28;8811;-81
2022/06/30 13:42:53;;;;;;;;;;;;;;;;;;4974871;28;8484;-81
2022/06/30 13:45:19;;;;;;;;;;;;;;;;;;4975001;28;8490;-82
2022/06/30 13:47:44;;;;;;;;;;;;;;;;;;4975265;28;7098;-89
2022/06/30 13:50:10;;;;;;;;;;;;;;;;;;4974709;28;7238;-88
2022/06/30 13:52:36;;;;;;;;;;;;;;;;;;4974852;28;8660;-89
2022/06/30 13:55:02;;;;;;;;;;;;;;;;;;4974874;28;9185;-88
2022/06/30 13:57:27;;;;;;;;;;;;;;;;;;4974935;28;8545;-90
2022/06/30 13:59:53;;;;;;;;;;;;;;;;;;4974746;28;7341;-88
2022/06/30 14:02:18;;;;;;;;;;;;;;;;;;4974724;28;8796;-87
2022/06/30 14:04:44;;;;;;;;;;;;;;;;;;4974670;28;7265;-88
2022/06/30 14:07:09;;;;;;;;;;;;;;;;;;4974827;28;7093;-88
2022/06/30 14:09:35;;;;;;;;;;;;;;;;;;4974736;28;8539;-87
2022/06/30 14:12:01;;;;;;;;;;;;;;;;;;4974847;28;8506;-87
2022/06/30 14:14:27;;;;;;;;;;;;;;;;;;4974449;28;7094;-88
2022/06/30 14:16:55;;;;;;;;;;;;;;;;;;4974575;28;8937;-89
2022/06/30 14:19:21;;;;;;;;;;;;;;;;;;4974528;28;7894;-81
2022/06/30 14:21:48;;;;;;;;;;;;;;;;;;4974623;28;8492;-81
2022/06/30 14:24:13;;;;;;;;;;;;;;;;;;4974319;28;8726;-81
2022/06/30 14:26:39;;;;;;;;;;;;;;;;;;4974650;28;7161;-81
2022/06/30 14:29:04;;;;;;;;;;;;;;;;;;4973688;28;8541;-80
2022/06/30 14:31:29;;;;;;;;;;;;;;;;;;4972461;28;8539;-80
2022/06/30 14:33:56;;;;;;;;;;;;;;;;;;4974038;28;7105;-80
2022/06/30 14:36:22;;;;;;;;;;;;;;;;;;4972973;28;8981;-80
2022/06/30 14:38:48;;;;;;;;;;;;;;;;;;4973270;28;8699;-78
2022/06/30 14:42:43;;;;;;;;;;;;;;;;;;4975713;28;7194;-78
2022/06/30 14:43:59;;;;;;;;;;;;;;;;;;4974520;28;7449;-85
2022/06/30 14:46:24;;;;;;;;;;;;;;;;;;4972694;28;7387;-87
2022/06/30 14:48:52;;;;;;;;;;;;;;;;;;4972560;28;8501;-87
2022/06/30 14:51:17;;;;;;;;;;;;;;;;;;4975298;28;8525;-87
2022/06/30 14:53:43;;;;;;;;;;;;;;;;;;4976829;28;8828;-88
2022/06/30 14:56:10;;;;;;;;;;;;;;;;;;4977275;28;7139;-87
2022/06/30 14:58:36;;;;;;;;;;;;;;;;;;4977681;28;8649;-88
2022/06/30 15:01:01;;;;;;;;;;;;;;;;;;4975899;28;8530;-87
2022/06/30 15:03:36;;;;;;;;;;;;;;;;;;4976989;28;8955;-86
2022/06/30 15:06:06;;;;;;;;;;;;;;;;;;4976823;28;9019;-86
2022/06/30 15:08:33;;;;;;;;;;;;;;;;;;4976263;28;8814;-87
2022/06/30 15:10:58;;;;;;;;;;;;;;;;;;4976502;28;8705;-87
2022/06/30 15:13:24;;;;;;;;;;;;;;;;;;4976335;28;8836;-88
2022/06/30 15:15:49;;;;;;;;;;;;;;;;;;4976640;28;8809;-87
2022/06/30 15:18:15;;;;;;;;;;;;;;;;;;4976416;28;8829;-89
2022/06/30 15:20:41;;;;;;;;;;;;;;;;;;4976520;28;8526;-87
2022/06/30 15:25:51;;;;;;;;;;;;;;;;;;4977879;28;7162;-87
2022/06/30 15:28:17;;;;;;;;;;;;;;;;;;4976453;28;7145;-89
2022/06/30 15:30:42;;;;;;;;;;;;;;;;;;4979123;28;8478;-88
2022/06/30 15:33:08;;;;;;;;;;;;;;;;;;4995458;28;7154;-88
2022/06/30 15:35:34;;;;;;;;;;;;;;;;;;4995889;28;8455;-89
2022/06/30 15:37:59;;;;;;;;;;;;;;;;;;4995527;28;8844;-89
2022/06/30 15:40:25;;;;;;;;;;;;;;;;;;4996036;28;8859;-88
2022/06/30 15:42:51;;;;;;;;;;;;;;;;;;4996939;28;8657;-88
2022/06/30 15:45:24;;;;;;;;;;;;;;;;;;4995555;28;8467;-88
2022/06/30 15:47:52;;;;;;;;;;;;;;;;;;4996298;28;7086;-88
2022/06/30 15:50:18;;;;;;;;;;;;;;;;;;4999343;28;8547;-87
2022/06/30 15:52:44;;;;;;;;;;;;;;;;;;4996869;28;8509;-87
2022/06/30 15:55:11;;;;;;;;;;;;;;;;;;4998008;28;8785;-88
2022/06/30 15:57:39;;;;;;;;;;;;;;;;;;4995813;28;8979;-88
2022/06/30 16:00:05;;;;;;;;;;;;;;;;;;4995219;28;8573;-88
2022/06/30 16:02:31;;;;;;;;;;;;;;;;;;4995324;28;8487;-87
2022/06/30 16:04:57;;;;;;;;;;;;;;;;;;4995493;28;8706;-88
2022/06/30 16:07:23;;;;;;;;;;;;;;;;;;4994811;28;8644;-88
2022/06/30 16:09:49;;;;;;;;;;;;;;;;;;4995473;28;8495;-89
2022/06/30 16:12:15;;;;;;;;;;;;;;;;;;4996685;28;9458;-88
2022/06/30 16:14:42;;;;;;;;;;;;;;;;;;4995610;28;7353;-87
2022/06/30 16:17:07;;;;;;;;;;;;;;;;;;4995714;28;8568;-87
2022/06/30 16:19:34;;;;;;;;;;;;;;;;;;4995930;28;7252;-86
2022/06/30 16:22:00;;;;;;;;;;;;;;;;;;4995674;28;8612;-87
2022/06/30 16:24:26;;;;;;;;;;;;;;;;;;4995791;28;8499;-88
2022/06/30 16:26:51;;;;;;;;;;;;;;;;;;4995096;28;7192;-88
2022/06/30 16:29:17;;;;;;;;;;;;;;;;;;4995135;28;8764;-88
2022/06/30 16:31:42;;;;;;;;;;;;;;;;;;4995446;28;8574;-88
2022/06/30 16:34:08;;;;;;;;;;;;;;;;;;4994883;28;8581;-86
2022/06/30 16:36:34;;;;;;;;;;;;;;;;;;4995227;28;7235;-87
2022/06/30 16:38:59;;;;;;;;;;;;;;;;;;4995439;28;7627;-87
2022/06/30 16:41:25;;;;;;;;;;;;;;;;;;4995043;28;8478;-88
2022/06/30 16:43:50;;;;;;;;;;;;;;;;;;4995205;28;8495;-87
2022/06/30 16:46:16;;;;;;;;;;;;;;;;;;4996198;28;8558;-87
2022/06/30 16:48:44;;;;;;;;;;;;;;;;;;4994977;28;8399;-87
2022/06/30 16:51:10;;;;;;;;;;;;;;;;;;4995203;28;8500;-87
2022/06/30 16:53:35;;;;;;;;;;;;;;;;;;4995319;28;8628;-89
2022/06/30 16:56:01;;;;;;;;;;;;;;;;;;4995733;28;8501;-83
2022/06/30 16:58:27;;;;;;;;;;;;;;;;;;4995665;28;8478;-84
2022/06/30 17:00:53;;;;;;;;;;;;;;;;;;4996955;28;7249;-86
2022/06/30 17:03:19;;;;;;;;;;;;;;;;;;4994974;28;8610;-86
2022/06/30 17:05:44;;;;;;;;;;;;;;;;;;4994842;28;8412;-85
2022/06/30 17:08:10;;;;;;;;;;;;;;;;;;4994992;28;8905;-86
2022/06/30 17:10:37;;;;;;;;;;;;;;;;;;4994924;28;8505;-86
2022/06/30 17:13:04;;;;;;;;;;;;;;;;;;4994393;28;8852;-85
2022/06/30 17:15:30;;;;;;;;;;;;;;;;;;4996329;28;8810;-86